createdAt,value
2022-12-29T00:09:39.963Z,9.5
2022-12-29T00:19:42.264Z,9.6
2022-12-29T00:49:48.882Z,9.2
2022-12-29T00:59:50.981Z,9.2
2022-12-29T01:09:53.095Z,9.3
2022-12-29T01:50:02.396Z,9.6
2022-12-29T02:30:11.210Z,10.4
2022-12-29T02:40:13.826Z,10.5
2022-12-29T02:50:16.237Z,10.5
2022-12-29T03:00:18.746Z,10.6
2022-12-29T03:10:20.831Z,10.6
2022-12-29T03:20:23.212Z,10.8
2022-12-29T03:30:25.459Z,10.4
2022-12-29T03:50:29.607Z,10.5
2022-12-29T04:00:31.660Z,10.6
2022-12-29T04:10:33.874Z,10.4
2022-12-29T04:40:40.149Z,10.1
2022-12-29T04:50:41.885Z,10.1
2022-12-29T05:00:44.175Z,10.5
2022-12-29T05:10:46.038Z,10.9
2022-12-29T05:20:48.377Z,11.2
2022-12-29T05:30:50.820Z,11.3
2022-12-29T05:40:52.904Z,9.9
2022-12-29T05:50:55.356Z,9.2
2022-12-29T06:00:57.600Z,9.1
2022-12-29T06:10:59.873Z,9.8
2022-12-29T06:21:02.516Z,10.6
2022-12-29T06:31:04.576Z,10.4
2022-12-29T06:41:07.024Z,10.5
2022-12-29T06:51:09.069Z,10.4
2022-12-29T07:01:11.718Z,10.4
2022-12-29T07:11:14.047Z,10.4
2022-12-29T07:31:18.149Z,10.3
2022-12-29T07:41:20.467Z,10.3
2022-12-29T07:51:22.926Z,10
2022-12-29T08:01:25.648Z,10.2
2022-12-29T08:11:27.644Z,10.2
2022-12-29T08:21:29.335Z,10.3
2022-12-29T08:31:31.141Z,10.2
2022-12-29T08:41:33.637Z,10.3
2022-12-29T08:51:35.773Z,10.2
2022-12-29T09:01:37.672Z,10
2022-12-29T09:11:39.647Z,9.5
2022-12-29T09:21:41.600Z,10.4
2022-12-29T09:31:43.735Z,10.8
2022-12-29T10:01:50.005Z,10.3
2022-12-29T10:11:51.731Z,10.2
2022-12-29T10:21:54.096Z,10.3
2022-12-29T10:31:56.014Z,10.5
2022-12-29T10:52:00.146Z,10.4
2022-12-29T11:12:04.893Z,10.4
2022-12-29T11:32:09.273Z,10.4
2022-12-29T12:22:21.048Z,10.4
2022-12-29T12:32:22.862Z,10.4
2022-12-29T12:42:25.483Z,10.3
2022-12-29T12:52:27.631Z,10.2
2022-12-29T13:02:29.843Z,10.2
2022-12-29T13:12:31.802Z,10.2
2022-12-29T13:32:35.556Z,10
2022-12-29T13:42:37.592Z,10.1
2022-12-29T13:52:40.199Z,10.1
2022-12-29T14:02:42.268Z,10
2022-12-29T14:12:44.074Z,10.1
2022-12-29T14:22:46.259Z,10.1
2022-12-29T14:32:48.088Z,10
2022-12-29T14:42:50.112Z,9.7
2022-12-29T14:52:55.276Z,9.5
2022-12-29T15:02:53.765Z,9.4
2022-12-29T15:12:55.863Z,9.5
2022-12-29T15:22:58.193Z,9.4
2022-12-29T15:32:59.945Z,9.6
2022-12-29T15:43:01.640Z,9.4
2022-12-29T16:03:06.379Z,9.3
2022-12-29T16:13:08.229Z,9.4
2022-12-29T16:23:10.660Z,9.2
2022-12-29T16:33:12.439Z,9.2
2022-12-29T16:43:14.797Z,9.3
2022-12-29T16:53:17.359Z,9
2022-12-29T17:13:22.126Z,8.4
2022-12-29T17:33:27.096Z,6.9
2022-12-29T17:43:36.277Z,6.4
2022-12-29T17:53:30.991Z,6.5
2022-12-29T18:03:32.972Z,6.5
2022-12-29T18:13:41.800Z,6.6
2022-12-29T18:23:37.259Z,6.3
2022-12-29T18:33:46.390Z,6.1
2022-12-29T18:43:48.659Z,6
2022-12-29T18:53:50.939Z,6.1
2022-12-29T19:03:53.351Z,6.1
2022-12-29T19:13:55.603Z,6.3
2022-12-29T19:23:58.060Z,6.4
2022-12-29T19:34:00.060Z,6.6
2022-12-29T19:44:02.167Z,6.4
2022-12-29T19:54:03.837Z,6.5
2022-12-29T20:04:06.018Z,6.5
2022-12-29T20:14:08.465Z,6.6
2022-12-29T20:24:10.876Z,6.4
2022-12-29T20:34:13.087Z,6.3
2022-12-29T20:54:17.492Z,6.5
2022-12-29T21:04:19.943Z,6.4
2022-12-29T21:14:22.528Z,6.5
2022-12-29T22:14:34.279Z,6.1
2022-12-29T22:34:38.570Z,6.1
2022-12-29T22:54:43.212Z,6.1
2022-12-29T23:05:03.346Z,6
2022-12-29T23:34:51.996Z,5.9
2022-12-29T23:44:53.955Z,5.9
2022-12-29T23:54:55.788Z,5.9
